Southwest Oregon Regional Airport North Bend US
ICAO: KOTH
IATA: OTH
Category: Medium
Scheduled Services: Yes

Elevation: 17 ft
TransAlt. 18000 ft.

Airport Communications:
AWOS 3:135.075
SEATTLE CNTR:121.4
AIR:34.5
MC MINNVILLE RDO:122.4
UNICOM:122.7

KOTH Zoom In..

Runways:

(A) RW 04 length 5980 ft width 150 ft
ILS 108.50 / hdg 43

(B) RW 13 length 4470 ft width 150 ft
---- / hdg 132

(C) RW 22 length 5980 ft width 150 ft
---- / hdg 223

(D) RW 31 length 4470 ft width 150 ft
---- / hdg 312

Location; KOTH
Day. 25 / Time. 11.56 Zulu
* Altimeter: 30.06
* Temperature: 09° c. 48.2°f.
* Wind from: 310° Speed 04 kn.
Dewpoint: 09° c.
Visibility: 1 m.
Clouds: Overcast 300 ft.
Conditions: Mist.

KOTH 251156Z AUTO 31004KT 1 1/4SM BR OVC003 09/09 A3006 RMK AO2 SLP179 T00940089 10094 20094 53004


Wind From 310°
Speed 04 kn.

  YouTube Music Video
 
jpsmedia.com for Web Design  worldairports.se 2018   terms of use